sensor_id;sensor_type;location;lat;lon;timestamp;P1;durP1;ratioP1;P2;durP2;ratioP2
62832;SDS011;48891;49.220;6.920;2023-05-07T00:02:01;53.78;;;36.53;;
62832;SDS011;48891;49.220;6.920;2023-05-07T00:04:27;49.88;;;35.13;;
62832;SDS011;48891;49.220;6.920;2023-05-07T00:06:52;53.70;;;36.97;;
62832;SDS011;48891;49.220;6.920;2023-05-07T00:09:17;54.60;;;37.90;;
62832;SDS011;48891;49.220;6.920;2023-05-07T00:11:42;55.17;;;36.42;;
62832;SDS011;48891;49.220;6.920;2023-05-07T00:14:08;50.83;;;36.33;;
62832;SDS011;48891;49.220;6.920;2023-05-07T00:16:33;51.53;;;36.70;;
62832;SDS011;48891;49.220;6.920;2023-05-07T00:18:58;50.83;;;36.30;;
62832;SDS011;48891;49.220;6.920;2023-05-07T00:21:23;51.17;;;36.47;;
62832;SDS011;48891;49.220;6.920;2023-05-07T00:23:48;52.60;;;35.75;;
62832;SDS011;48891;49.220;6.920;2023-05-07T00:26:14;51.03;;;35.33;;
62832;SDS011;48891;49.220;6.920;2023-05-07T00:28:39;52.75;;;36.03;;
62832;SDS011;48891;49.220;6.920;2023-05-07T00:31:04;52.40;;;36.38;;
62832;SDS011;48891;49.220;6.920;2023-05-07T00:33:29;48.88;;;34.50;;
62832;SDS011;48891;49.220;6.920;2023-05-07T00:35:55;48.80;;;36.17;;
62832;SDS011;48891;49.220;6.920;2023-05-07T00:38:20;51.05;;;36.08;;
62832;SDS011;48891;49.220;6.920;2023-05-07T00:40:45;47.72;;;34.13;;
62832;SDS011;48891;49.220;6.920;2023-05-07T00:43:10;51.13;;;36.05;;
62832;SDS011;48891;49.220;6.920;2023-05-07T00:45:36;48.78;;;34.63;;
62832;SDS011;48891;49.220;6.920;2023-05-07T00:48:01;50.95;;;35.53;;
62832;SDS011;48891;49.220;6.920;2023-05-07T00:50:27;52.30;;;36.85;;
62832;SDS011;48891;49.220;6.920;2023-05-07T00:52:53;53.20;;;35.83;;
62832;SDS011;48891;49.220;6.920;2023-05-07T00:55:19;52.35;;;36.08;;
62832;SDS011;48891;49.220;6.920;2023-05-07T00:57:44;47.03;;;34.92;;
62832;SDS011;48891;49.220;6.920;2023-05-07T01:00:10;54.15;;;37.00;;
62832;SDS011;48891;49.220;6.920;2023-05-07T01:02:36;49.67;;;35.90;;
62832;SDS011;48891;49.220;6.920;2023-05-07T01:05:01;50.10;;;36.72;;
62832;SDS011;48891;49.220;6.920;2023-05-07T01:07:29;49.50;;;36.15;;
62832;SDS011;48891;49.220;6.920;2023-05-07T01:09:55;51.63;;;35.97;;
62832;SDS011;48891;49.220;6.920;2023-05-07T01:12:21;52.30;;;36.30;;
62832;SDS011;48891;49.220;6.920;2023-05-07T01:14:47;53.00;;;36.72;;
62832;SDS011;48891;49.220;6.920;2023-05-07T01:17:13;51.78;;;36.90;;
62832;SDS011;48891;49.220;6.920;2023-05-07T01:19:38;49.63;;;36.25;;
62832;SDS011;48891;49.220;6.920;2023-05-07T01:22:03;52.25;;;36.42;;
62832;SDS011;48891;49.220;6.920;2023-05-07T01:24:33;52.20;;;36.80;;
62832;SDS011;48891;49.220;6.920;2023-05-07T01:26:59;52.22;;;37.63;;
62832;SDS011;48891;49.220;6.920;2023-05-07T01:29:24;51.75;;;37.85;;
62832;SDS011;48891;49.220;6.920;2023-05-07T01:31:49;52.00;;;37.78;;
62832;SDS011;48891;49.220;6.920;2023-05-07T01:34:16;50.60;;;36.30;;
62832;SDS011;48891;49.220;6.920;2023-05-07T01:36:43;54.15;;;37.95;;
62832;SDS011;48891;49.220;6.920;2023-05-07T01:39:10;49.70;;;35.30;;
62832;SDS011;48891;49.220;6.920;2023-05-07T01:41:35;53.53;;;38.28;;
62832;SDS011;48891;49.220;6.920;2023-05-07T01:44:01;52.00;;;37.88;;
62832;SDS011;48891;49.220;6.920;2023-05-07T01:46:27;52.30;;;37.45;;
62832;SDS011;48891;49.220;6.920;2023-05-07T01:48:54;52.33;;;37.33;;
62832;SDS011;48891;49.220;6.920;2023-05-07T01:51:19;51.83;;;37.13;;
62832;SDS011;48891;49.220;6.920;2023-05-07T01:53:45;52.28;;;37.50;;
62832;SDS011;48891;49.220;6.920;2023-05-07T01:56:10;55.08;;;39.63;;
62832;SDS011;48891;49.220;6.920;2023-05-07T01:58:35;53.05;;;37.65;;
62832;SDS011;48891;49.220;6.920;2023-05-07T02:01:01;51.97;;;37.80;;
62832;SDS011;48891;49.220;6.920;2023-05-07T02:03:26;50.07;;;37.30;;
62832;SDS011;48891;49.220;6.920;2023-05-07T02:05:51;53.95;;;39.15;;
62832;SDS011;48891;49.220;6.920;2023-05-07T02:08:16;55.28;;;39.63;;
62832;SDS011;48891;49.220;6.920;2023-05-07T02:10:41;52.60;;;37.33;;
62832;SDS011;48891;49.220;6.920;2023-05-07T02:13:07;53.40;;;38.05;;
62832;SDS011;48891;49.220;6.920;2023-05-07T02:15:32;55.63;;;38.95;;
62832;SDS011;48891;49.220;6.920;2023-05-07T02:18:04;50.03;;;37.10;;
62832;SDS011;48891;49.220;6.920;2023-05-07T02:20:31;53.47;;;38.30;;
62832;SDS011;48891;49.220;6.920;2023-05-07T02:22:56;53.65;;;38.08;;
62832;SDS011;48891;49.220;6.920;2023-05-07T02:25:21;53.72;;;38.00;;
62832;SDS011;48891;49.220;6.920;2023-05-07T02:27:46;54.38;;;38.53;;
62832;SDS011;48891;49.220;6.920;2023-05-07T02:30:12;51.67;;;37.13;;
62832;SDS011;48891;49.220;6.920;2023-05-07T02:32:38;51.80;;;37.08;;
62832;SDS011;48891;49.220;6.920;2023-05-07T02:35:03;55.50;;;39.83;;
62832;SDS011;48891;49.220;6.920;2023-05-07T02:37:29;53.47;;;38.78;;
62832;SDS011;48891;49.220;6.920;2023-05-07T02:39:54;53.72;;;38.65;;
62832;SDS011;48891;49.220;6.920;2023-05-07T02:42:19;52.45;;;37.05;;
62832;SDS011;48891;49.220;6.920;2023-05-07T02:44:44;52.47;;;37.43;;
62832;SDS011;48891;49.220;6.920;2023-05-07T02:47:09;52.23;;;38.33;;
62832;SDS011;48891;49.220;6.920;2023-05-07T02:49:35;51.92;;;37.40;;
62832;SDS011;48891;49.220;6.920;2023-05-07T02:52:00;51.50;;;38.27;;
62832;SDS011;48891;49.220;6.920;2023-05-07T02:54:25;51.58;;;36.97;;
62832;SDS011;48891;49.220;6.920;2023-05-07T02:56:50;50.83;;;38.27;;
62832;SDS011;48891;49.220;6.920;2023-05-07T02:59:16;49.70;;;36.17;;
62832;SDS011;48891;49.220;6.920;2023-05-07T03:01:41;51.40;;;36.40;;
62832;SDS011;48891;49.220;6.920;2023-05-07T03:04:06;50.23;;;36.40;;
62832;SDS011;48891;49.220;6.920;2023-05-07T03:06:31;49.00;;;36.70;;
62832;SDS011;48891;49.220;6.920;2023-05-07T03:08:56;49.75;;;36.83;;
62832;SDS011;48891;49.220;6.920;2023-05-07T03:11:22;51.38;;;36.22;;
62832;SDS011;48891;49.220;6.920;2023-05-07T03:13:47;50.35;;;36.10;;
62832;SDS011;48891;49.220;6.920;2023-05-07T03:16:12;53.30;;;37.80;;
62832;SDS011;48891;49.220;6.920;2023-05-07T03:18:37;50.00;;;35.17;;
62832;SDS011;48891;49.220;6.920;2023-05-07T03:21:03;50.63;;;36.33;;
62832;SDS011;48891;49.220;6.920;2023-05-07T03:23:28;50.67;;;36.42;;
62832;SDS011;48891;49.220;6.920;2023-05-07T03:25:53;49.97;;;36.07;;
62832;SDS011;48891;49.220;6.920;2023-05-07T03:28:18;49.80;;;36.13;;
62832;SDS011;48891;49.220;6.920;2023-05-07T03:30:43;50.87;;;35.47;;
62832;SDS011;48891;49.220;6.920;2023-05-07T03:33:09;48.10;;;36.00;;
62832;SDS011;48891;49.220;6.920;2023-05-07T03:35:34;48.25;;;36.05;;
62832;SDS011;48891;49.220;6.920;2023-05-07T03:37:59;49.78;;;35.58;;
62832;SDS011;48891;49.220;6.920;2023-05-07T03:40:25;47.78;;;34.97;;
62832;SDS011;48891;49.220;6.920;2023-05-07T03:42:50;51.58;;;37.95;;
62832;SDS011;48891;49.220;6.920;2023-05-07T03:45:15;49.72;;;35.88;;
62832;SDS011;48891;49.220;6.920;2023-05-07T03:47:40;47.90;;;35.22;;
62832;SDS011;48891;49.220;6.920;2023-05-07T03:50:06;48.63;;;34.45;;
62832;SDS011;48891;49.220;6.920;2023-05-07T03:52:31;47.33;;;34.95;;
62832;SDS011;48891;49.220;6.920;2023-05-07T03:54:56;44.78;;;33.90;;
62832;SDS011;48891;49.220;6.920;2023-05-07T03:57:22;52.20;;;35.53;;
62832;SDS011;48891;49.220;6.920;2023-05-07T03:59:47;47.17;;;34.70;;
62832;SDS011;48891;49.220;6.920;2023-05-07T04:02:12;49.25;;;34.47;;
62832;SDS011;48891;49.220;6.920;2023-05-07T04:04:37;45.40;;;33.38;;
62832;SDS011;48891;49.220;6.920;2023-05-07T04:07:03;47.97;;;33.40;;
62832;SDS011;48891;49.220;6.920;2023-05-07T04:09:28;42.93;;;32.07;;
62832;SDS011;48891;49.220;6.920;2023-05-07T04:11:53;47.47;;;34.23;;
62832;SDS011;48891;49.220;6.920;2023-05-07T04:14:18;46.85;;;33.88;;
62832;SDS011;48891;49.220;6.920;2023-05-07T04:16:43;43.42;;;31.85;;
62832;SDS011;48891;49.220;6.920;2023-05-07T04:19:09;47.85;;;35.45;;
62832;SDS011;48891;49.220;6.920;2023-05-07T04:21:34;45.95;;;33.70;;
62832;SDS011;48891;49.220;6.920;2023-05-07T04:23:59;45.63;;;32.73;;
62832;SDS011;48891;49.220;6.920;2023-05-07T04:26:24;45.10;;;32.67;;
62832;SDS011;48891;49.220;6.920;2023-05-07T04:28:50;46.05;;;32.85;;
62832;SDS011;48891;49.220;6.920;2023-05-07T04:31:15;42.85;;;31.85;;
62832;SDS011;48891;49.220;6.920;2023-05-07T04:33:40;47.25;;;33.13;;
62832;SDS011;48891;49.220;6.920;2023-05-07T04:36:06;46.13;;;33.88;;
62832;SDS011;48891;49.220;6.920;2023-05-07T04:38:31;43.60;;;31.70;;
62832;SDS011;48891;49.220;6.920;2023-05-07T04:40:57;45.33;;;33.38;;
62832;SDS011;48891;49.220;6.920;2023-05-07T04:43:27;44.53;;;33.55;;
62832;SDS011;48891;49.220;6.920;2023-05-07T04:45:52;44.33;;;32.50;;
62832;SDS011;48891;49.220;6.920;2023-05-07T04:48:17;44.10;;;32.10;;
62832;SDS011;48891;49.220;6.920;2023-05-07T04:50:42;45.83;;;32.03;;
62832;SDS011;48891;49.220;6.920;2023-05-07T04:53:08;43.63;;;32.33;;
62832;SDS011;48891;49.220;6.920;2023-05-07T04:55:33;46.38;;;32.42;;
62832;SDS011;48891;49.220;6.920;2023-05-07T04:57:58;44.17;;;31.35;;
62832;SDS011;48891;49.220;6.920;2023-05-07T05:00:24;44.60;;;32.08;;
62832;SDS011;48891;49.220;6.920;2023-05-07T05:02:49;41.42;;;31.48;;
62832;SDS011;48891;49.220;6.920;2023-05-07T05:05:14;43.53;;;31.40;;
62832;SDS011;48891;49.220;6.920;2023-05-07T05:07:40;42.60;;;32.15;;
62832;SDS011;48891;49.220;6.920;2023-05-07T05:10:05;42.43;;;30.93;;
62832;SDS011;48891;49.220;6.920;2023-05-07T05:12:30;43.10;;;31.45;;
62832;SDS011;48891;49.220;6.920;2023-05-07T05:14:56;43.45;;;32.20;;
62832;SDS011;48891;49.220;6.920;2023-05-07T05:17:21;40.97;;;30.67;;
62832;SDS011;48891;49.220;6.920;2023-05-07T05:19:46;43.45;;;31.15;;
62832;SDS011;48891;49.220;6.920;2023-05-07T05:22:11;43.88;;;31.83;;
62832;SDS011;48891;49.220;6.920;2023-05-07T05:24:37;42.20;;;30.13;;
62832;SDS011;48891;49.220;6.920;2023-05-07T05:27:02;41.33;;;30.20;;
62832;SDS011;48891;49.220;6.920;2023-05-07T05:29:27;41.17;;;29.73;;
62832;SDS011;48891;49.220;6.920;2023-05-07T05:31:52;41.75;;;31.00;;
62832;SDS011;48891;49.220;6.920;2023-05-07T05:34:18;43.42;;;30.48;;
62832;SDS011;48891;49.220;6.920;2023-05-07T05:36:43;41.95;;;31.10;;
62832;SDS011;48891;49.220;6.920;2023-05-07T05:39:08;42.72;;;29.67;;
62832;SDS011;48891;49.220;6.920;2023-05-07T05:41:33;40.47;;;29.23;;
62832;SDS011;48891;49.220;6.920;2023-05-07T05:43:59;42.50;;;29.83;;
62832;SDS011;48891;49.220;6.920;2023-05-07T05:46:24;39.53;;;28.77;;
62832;SDS011;48891;49.220;6.920;2023-05-07T05:48:49;42.38;;;30.15;;
62832;SDS011;48891;49.220;6.920;2023-05-07T05:51:14;40.70;;;28.70;;
62832;SDS011;48891;49.220;6.920;2023-05-07T05:53:39;37.93;;;28.47;;
62832;SDS011;48891;49.220;6.920;2023-05-07T05:56:05;38.20;;;28.53;;
62832;SDS011;48891;49.220;6.920;2023-05-07T05:58:30;41.88;;;30.15;;
62832;SDS011;48891;49.220;6.920;2023-05-07T06:00:56;38.88;;;29.10;;
62832;SDS011;48891;49.220;6.920;2023-05-07T06:03:21;39.30;;;28.15;;
62832;SDS011;48891;49.220;6.920;2023-05-07T06:05:46;37.28;;;27.58;;
62832;SDS011;48891;49.220;6.920;2023-05-07T06:08:12;39.03;;;28.77;;
62832;SDS011;48891;49.220;6.920;2023-05-07T06:10:37;38.70;;;29.15;;
62832;SDS011;48891;49.220;6.920;2023-05-07T06:13:03;37.70;;;28.00;;
62832;SDS011;48891;49.220;6.920;2023-05-07T06:15:28;36.83;;;27.43;;
62832;SDS011;48891;49.220;6.920;2023-05-07T06:17:53;37.70;;;27.60;;
62832;SDS011;48891;49.220;6.920;2023-05-07T06:20:18;37.27;;;28.47;;
62832;SDS011;48891;49.220;6.920;2023-05-07T06:22:44;38.80;;;28.87;;
62832;SDS011;48891;49.220;6.920;2023-05-07T06:25:09;38.20;;;27.25;;
62832;SDS011;48891;49.220;6.920;2023-05-07T06:27:34;34.80;;;25.92;;
62832;SDS011;48891;49.220;6.920;2023-05-07T06:29:59;36.00;;;27.33;;
62832;SDS011;48891;49.220;6.920;2023-05-07T06:32:24;36.20;;;26.97;;
62832;SDS011;48891;49.220;6.920;2023-05-07T06:34:50;36.78;;;26.35;;
62832;SDS011;48891;49.220;6.920;2023-05-07T06:37:15;36.27;;;26.77;;
62832;SDS011;48891;49.220;6.920;2023-05-07T06:39:40;34.67;;;25.55;;
62832;SDS011;48891;49.220;6.920;2023-05-07T06:42:05;35.67;;;26.95;;
62832;SDS011;48891;49.220;6.920;2023-05-07T06:44:31;36.17;;;26.67;;
62832;SDS011;48891;49.220;6.920;2023-05-07T06:46:56;37.03;;;26.38;;
62832;SDS011;48891;49.220;6.920;2023-05-07T06:49:22;34.90;;;25.33;;
62832;SDS011;48891;49.220;6.920;2023-05-07T06:51:47;35.75;;;25.92;;
62832;SDS011;48891;49.220;6.920;2023-05-07T06:54:12;34.47;;;25.90;;
62832;SDS011;48891;49.220;6.920;2023-05-07T06:56:37;33.83;;;25.13;;
62832;SDS011;48891;49.220;6.920;2023-05-07T06:59:03;34.72;;;25.95;;
62832;SDS011;48891;49.220;6.920;2023-05-07T07:01:28;34.08;;;24.80;;
62832;SDS011;48891;49.220;6.920;2023-05-07T07:03:53;33.17;;;24.67;;
62832;SDS011;48891;49.220;6.920;2023-05-07T07:06:19;35.28;;;25.30;;
62832;SDS011;48891;49.220;6.920;2023-05-07T07:08:44;33.28;;;25.05;;
62832;SDS011;48891;49.220;6.920;2023-05-07T07:11:09;34.42;;;25.58;;
62832;SDS011;48891;49.220;6.920;2023-05-07T07:13:35;33.25;;;24.33;;
62832;SDS011;48891;49.220;6.920;2023-05-07T07:16:00;33.60;;;24.83;;
62832;SDS011;48891;49.220;6.920;2023-05-07T07:18:25;34.33;;;24.65;;
62832;SDS011;48891;49.220;6.920;2023-05-07T07:20:50;31.70;;;23.67;;
62832;SDS011;48891;49.220;6.920;2023-05-07T07:23:16;31.80;;;23.38;;
62832;SDS011;48891;49.220;6.920;2023-05-07T07:25:41;31.50;;;24.03;;
62832;SDS011;48891;49.220;6.920;2023-05-07T07:28:06;31.08;;;22.23;;
62832;SDS011;48891;49.220;6.920;2023-05-07T07:30:31;33.65;;;23.92;;
62832;SDS011;48891;49.220;6.920;2023-05-07T07:32:57;32.53;;;24.25;;
62832;SDS011;48891;49.220;6.920;2023-05-07T07:35:22;32.03;;;24.40;;
62832;SDS011;48891;49.220;6.920;2023-05-07T07:37:48;30.60;;;23.07;;
62832;SDS011;48891;49.220;6.920;2023-05-07T07:40:13;30.92;;;22.77;;
62832;SDS011;48891;49.220;6.920;2023-05-07T07:42:39;31.55;;;23.25;;
62832;SDS011;48891;49.220;6.920;2023-05-07T07:45:04;31.93;;;23.27;;
62832;SDS011;48891;49.220;6.920;2023-05-07T07:47:31;31.10;;;23.35;;
62832;SDS011;48891;49.220;6.920;2023-05-07T07:49:56;32.55;;;22.77;;
62832;SDS011;48891;49.220;6.920;2023-05-07T07:52:21;32.37;;;23.50;;
62832;SDS011;48891;49.220;6.920;2023-05-07T07:54:46;31.80;;;22.93;;
62832;SDS011;48891;49.220;6.920;2023-05-07T07:57:12;31.17;;;22.08;;
62832;SDS011;48891;49.220;6.920;2023-05-07T07:59:37;30.73;;;22.90;;
62832;SDS011;48891;49.220;6.920;2023-05-07T08:02:02;27.93;;;21.47;;
62832;SDS011;48891;49.220;6.920;2023-05-07T08:04:27;28.23;;;21.20;;
62832;SDS011;48891;49.220;6.920;2023-05-07T08:06:53;31.88;;;23.13;;
62832;SDS011;48891;49.220;6.920;2023-05-07T08:09:18;28.90;;;21.83;;
62832;SDS011;48891;49.220;6.920;2023-05-07T08:11:43;29.10;;;21.53;;
62832;SDS011;48891;49.220;6.920;2023-05-07T08:14:08;29.90;;;21.00;;
62832;SDS011;48891;49.220;6.920;2023-05-07T08:16:34;29.80;;;21.55;;
62832;SDS011;48891;49.220;6.920;2023-05-07T08:18:59;29.92;;;22.20;;
62832;SDS011;48891;49.220;6.920;2023-05-07T08:21:24;28.13;;;20.42;;
62832;SDS011;48891;49.220;6.920;2023-05-07T08:23:49;30.48;;;22.35;;
62832;SDS011;48891;49.220;6.920;2023-05-07T08:26:15;29.50;;;21.80;;
62832;SDS011;48891;49.220;6.920;2023-05-07T08:28:40;29.07;;;21.37;;
62832;SDS011;48891;49.220;6.920;2023-05-07T08:31:05;29.23;;;21.50;;
62832;SDS011;48891;49.220;6.920;2023-05-07T08:33:30;28.30;;;20.98;;
62832;SDS011;48891;49.220;6.920;2023-05-07T08:35:56;26.75;;;20.40;;
62832;SDS011;48891;49.220;6.920;2023-05-07T08:38:21;26.55;;;20.27;;
62832;SDS011;48891;49.220;6.920;2023-05-07T08:40:47;27.67;;;20.20;;
62832;SDS011;48891;49.220;6.920;2023-05-07T08:43:13;28.20;;;19.92;;
62832;SDS011;48891;49.220;6.920;2023-05-07T08:45:39;27.73;;;21.08;;
62832;SDS011;48891;49.220;6.920;2023-05-07T08:48:05;27.45;;;20.35;;
62832;SDS011;48891;49.220;6.920;2023-05-07T08:50:35;28.02;;;20.13;;
62832;SDS011;48891;49.220;6.920;2023-05-07T08:53:02;29.33;;;21.70;;
62832;SDS011;48891;49.220;6.920;2023-05-07T08:55:28;27.10;;;20.00;;
62832;SDS011;48891;49.220;6.920;2023-05-07T08:57:54;29.48;;;21.13;;
62832;SDS011;48891;49.220;6.920;2023-05-07T09:00:19;26.67;;;19.92;;
62832;SDS011;48891;49.220;6.920;2023-05-07T09:02:44;26.52;;;18.88;;
62832;SDS011;48891;49.220;6.920;2023-05-07T09:05:09;25.63;;;19.80;;
62832;SDS011;48891;49.220;6.920;2023-05-07T09:07:35;27.23;;;20.25;;
62832;SDS011;48891;49.220;6.920;2023-05-07T09:10:03;28.23;;;20.02;;
62832;SDS011;48891;49.220;6.920;2023-05-07T09:12:29;24.23;;;19.30;;
62832;SDS011;48891;49.220;6.920;2023-05-07T09:14:55;25.40;;;19.58;;
62832;SDS011;48891;49.220;6.920;2023-05-07T09:17:20;28.88;;;19.92;;
62832;SDS011;48891;49.220;6.920;2023-05-07T09:19:45;25.50;;;20.23;;
62832;SDS011;48891;49.220;6.920;2023-05-07T09:22:11;27.30;;;19.10;;
62832;SDS011;48891;49.220;6.920;2023-05-07T09:24:37;24.60;;;18.77;;
62832;SDS011;48891;49.220;6.920;2023-05-07T09:27:03;24.60;;;19.20;;
62832;SDS011;48891;49.220;6.920;2023-05-07T09:29:29;25.85;;;19.65;;
62832;SDS011;48891;49.220;6.920;2023-05-07T09:31:55;26.38;;;19.20;;
62832;SDS011;48891;49.220;6.920;2023-05-07T09:34:21;25.40;;;19.40;;
62832;SDS011;48891;49.220;6.920;2023-05-07T09:36:46;26.58;;;19.50;;
62832;SDS011;48891;49.220;6.920;2023-05-07T09:39:12;26.52;;;20.33;;
62832;SDS011;48891;49.220;6.920;2023-05-07T09:41:44;26.92;;;19.23;;
62832;SDS011;48891;49.220;6.920;2023-05-07T09:44:11;26.17;;;19.67;;
62832;SDS011;48891;49.220;6.920;2023-05-07T09:46:38;25.75;;;19.58;;
62832;SDS011;48891;49.220;6.920;2023-05-07T09:49:03;26.40;;;19.85;;
62832;SDS011;48891;49.220;6.920;2023-05-07T09:51:39;27.13;;;20.42;;
62832;SDS011;48891;49.220;6.920;2023-05-07T09:54:10;25.58;;;19.13;;
62832;SDS011;48891;49.220;6.920;2023-05-07T09:56:36;26.05;;;19.40;;
62832;SDS011;48891;49.220;6.920;2023-05-07T09:59:01;25.83;;;19.92;;
62832;SDS011;48891;49.220;6.920;2023-05-07T10:01:29;25.58;;;19.73;;
62832;SDS011;48891;49.220;6.920;2023-05-07T10:03:56;28.23;;;20.10;;
62832;SDS011;48891;49.220;6.920;2023-05-07T10:06:23;24.10;;;18.65;;
62832;SDS011;48891;49.220;6.920;2023-05-07T10:08:50;24.15;;;19.05;;
62832;SDS011;48891;49.220;6.920;2023-05-07T10:11:16;26.40;;;19.63;;
62832;SDS011;48891;49.220;6.920;2023-05-07T10:13:42;27.98;;;20.00;;
62832;SDS011;48891;49.220;6.920;2023-05-07T10:16:08;23.73;;;17.95;;
62832;SDS011;48891;49.220;6.920;2023-05-07T10:18:33;25.60;;;19.38;;
62832;SDS011;48891;49.220;6.920;2023-05-07T10:21:02;25.38;;;19.00;;
62832;SDS011;48891;49.220;6.920;2023-05-07T10:23:40;25.10;;;18.70;;
62832;SDS011;48891;49.220;6.920;2023-05-07T10:28:37;25.33;;;18.52;;
62832;SDS011;48891;49.220;6.920;2023-05-07T10:33:43;25.83;;;18.38;;
62832;SDS011;48891;49.220;6.920;2023-05-07T10:36:11;25.20;;;17.70;;
62832;SDS011;48891;49.220;6.920;2023-05-07T10:38:36;24.05;;;18.42;;
62832;SDS011;48891;49.220;6.920;2023-05-07T10:41:02;24.65;;;17.77;;
62832;SDS011;48891;49.220;6.920;2023-05-07T10:43:37;24.02;;;17.60;;
62832;SDS011;48891;49.220;6.920;2023-05-07T10:51:27;23.73;;;17.38;;
62832;SDS011;48891;49.220;6.920;2023-05-07T10:54:35;23.13;;;18.08;;
62832;SDS011;48891;49.220;6.920;2023-05-07T10:56:45;24.25;;;17.75;;
62832;SDS011;48891;49.220;6.920;2023-05-07T11:01:54;23.33;;;17.87;;
62832;SDS011;48891;49.220;6.920;2023-05-07T11:04:21;23.80;;;17.83;;
62832;SDS011;48891;49.220;6.920;2023-05-07T11:12:16;22.40;;;17.38;;
62832;SDS011;48891;49.220;6.920;2023-05-07T11:15:00;23.15;;;18.38;;
62832;SDS011;48891;49.220;6.920;2023-05-07T11:17:25;21.83;;;17.63;;
62832;SDS011;48891;49.220;6.920;2023-05-07T11:19:51;26.65;;;18.77;;
62832;SDS011;48891;49.220;6.920;2023-05-07T11:24:55;25.07;;;18.73;;
62832;SDS011;48891;49.220;6.920;2023-05-07T11:27:23;23.63;;;18.10;;
62832;SDS011;48891;49.220;6.920;2023-05-07T11:29:49;22.88;;;17.75;;
62832;SDS011;48891;49.220;6.920;2023-05-07T11:32:15;21.98;;;17.25;;
62832;SDS011;48891;49.220;6.920;2023-05-07T11:34:47;22.48;;;17.85;;
62832;SDS011;48891;49.220;6.920;2023-05-07T11:37:19;24.35;;;18.50;;
62832;SDS011;48891;49.220;6.920;2023-05-07T11:39:45;24.20;;;17.60;;
62832;SDS011;48891;49.220;6.920;2023-05-07T11:42:30;23.27;;;17.75;;
62832;SDS011;48891;49.220;6.920;2023-05-07T11:44:56;24.75;;;18.27;;
62832;SDS011;48891;49.220;6.920;2023-05-07T11:47:22;26.40;;;18.85;;
62832;SDS011;48891;49.220;6.920;2023-05-07T11:49:47;23.17;;;17.27;;
62832;SDS011;48891;49.220;6.920;2023-05-07T11:52:14;22.15;;;17.75;;
62832;SDS011;48891;49.220;6.920;2023-05-07T11:54:40;23.95;;;17.60;;
62832;SDS011;48891;49.220;6.920;2023-05-07T11:57:05;25.63;;;17.92;;
62832;SDS011;48891;49.220;6.920;2023-05-07T11:59:37;25.92;;;18.73;;
62832;SDS011;48891;49.220;6.920;2023-05-07T12:02:03;22.90;;;17.50;;
62832;SDS011;48891;49.220;6.920;2023-05-07T12:04:29;22.07;;;17.53;;
62832;SDS011;48891;49.220;6.920;2023-05-07T12:06:55;24.27;;;18.23;;
62832;SDS011;48891;49.220;6.920;2023-05-07T12:09:20;25.20;;;19.08;;
62832;SDS011;48891;49.220;6.920;2023-05-07T12:11:46;23.60;;;18.70;;
62832;SDS011;48891;49.220;6.920;2023-05-07T12:14:11;24.42;;;18.98;;
62832;SDS011;48891;49.220;6.920;2023-05-07T12:16:36;25.37;;;19.47;;
62832;SDS011;48891;49.220;6.920;2023-05-07T12:19:02;24.33;;;19.45;;
62832;SDS011;48891;49.220;6.920;2023-05-07T12:21:27;24.70;;;18.77;;
62832;SDS011;48891;49.220;6.920;2023-05-07T12:23:53;25.08;;;19.40;;
62832;SDS011;48891;49.220;6.920;2023-05-07T12:26:19;25.30;;;18.73;;
62832;SDS011;48891;49.220;6.920;2023-05-07T12:28:44;25.20;;;20.08;;
62832;SDS011;48891;49.220;6.920;2023-05-07T12:31:11;26.25;;;20.17;;
62832;SDS011;48891;49.220;6.920;2023-05-07T12:33:36;25.27;;;19.80;;
62832;SDS011;48891;49.220;6.920;2023-05-07T12:36:07;25.88;;;19.50;;
62832;SDS011;48891;49.220;6.920;2023-05-07T12:38:37;25.83;;;20.60;;
62832;SDS011;48891;49.220;6.920;2023-05-07T12:41:03;27.30;;;20.50;;
62832;SDS011;48891;49.220;6.920;2023-05-07T12:43:29;28.83;;;21.00;;
62832;SDS011;48891;49.220;6.920;2023-05-07T12:45:56;25.00;;;20.45;;
62832;SDS011;48891;49.220;6.920;2023-05-07T12:48:22;28.63;;;20.48;;
62832;SDS011;48891;49.220;6.920;2023-05-07T12:50:49;26.35;;;20.35;;
62832;SDS011;48891;49.220;6.920;2023-05-07T12:53:25;27.05;;;20.27;;
62832;SDS011;48891;49.220;6.920;2023-05-07T12:55:52;26.35;;;20.50;;
62832;SDS011;48891;49.220;6.920;2023-05-07T13:00:57;25.98;;;19.10;;
62832;SDS011;48891;49.220;6.920;2023-05-07T13:05:53;26.10;;;21.17;;
62832;SDS011;48891;49.220;6.920;2023-05-07T13:08:39;26.65;;;21.05;;
62832;SDS011;48891;49.220;6.920;2023-05-07T13:11:06;27.08;;;21.00;;
62832;SDS011;48891;49.220;6.920;2023-05-07T13:13:33;26.35;;;20.40;;
62832;SDS011;48891;49.220;6.920;2023-05-07T13:16:03;27.60;;;21.50;;
62832;SDS011;48891;49.220;6.920;2023-05-07T13:18:30;25.92;;;21.63;;
62832;SDS011;48891;49.220;6.920;2023-05-07T13:20:56;26.70;;;21.00;;
62832;SDS011;48891;49.220;6.920;2023-05-07T13:23:22;25.85;;;21.30;;
62832;SDS011;48891;49.220;6.920;2023-05-07T13:25:47;27.38;;;21.70;;
62832;SDS011;48891;49.220;6.920;2023-05-07T13:28:13;30.05;;;23.42;;
62832;SDS011;48891;49.220;6.920;2023-05-07T13:30:38;29.80;;;22.75;;
62832;SDS011;48891;49.220;6.920;2023-05-07T13:33:04;30.13;;;23.65;;
62832;SDS011;48891;49.220;6.920;2023-05-07T13:35:29;28.05;;;22.88;;
62832;SDS011;48891;49.220;6.920;2023-05-07T13:37:54;30.38;;;23.20;;
62832;SDS011;48891;49.220;6.920;2023-05-07T13:40:20;29.10;;;22.80;;
62832;SDS011;48891;49.220;6.920;2023-05-07T13:42:46;30.27;;;23.60;;
62832;SDS011;48891;49.220;6.920;2023-05-07T13:45:11;28.17;;;22.75;;
62832;SDS011;48891;49.220;6.920;2023-05-07T13:47:36;29.00;;;23.00;;
62832;SDS011;48891;49.220;6.920;2023-05-07T13:50:02;32.23;;;24.37;;
62832;SDS011;48891;49.220;6.920;2023-05-07T13:52:27;29.70;;;23.25;;
62832;SDS011;48891;49.220;6.920;2023-05-07T13:54:52;30.52;;;23.95;;
62832;SDS011;48891;49.220;6.920;2023-05-07T13:57:18;33.05;;;25.27;;
62832;SDS011;48891;49.220;6.920;2023-05-07T13:59:43;30.67;;;25.42;;
62832;SDS011;48891;49.220;6.920;2023-05-07T14:02:09;32.88;;;25.23;;
62832;SDS011;48891;49.220;6.920;2023-05-07T14:04:34;30.67;;;25.70;;
62832;SDS011;48891;49.220;6.920;2023-05-07T14:06:59;31.83;;;25.92;;
62832;SDS011;48891;49.220;6.920;2023-05-07T14:09:25;32.20;;;25.25;;
62832;SDS011;48891;49.220;6.920;2023-05-07T14:11:50;31.30;;;24.48;;
62832;SDS011;48891;49.220;6.920;2023-05-07T14:14:15;32.43;;;24.73;;
62832;SDS011;48891;49.220;6.920;2023-05-07T14:16:40;32.33;;;25.67;;
62832;SDS011;48891;49.220;6.920;2023-05-07T14:19:06;35.63;;;27.20;;
62832;SDS011;48891;49.220;6.920;2023-05-07T14:21:31;32.27;;;26.07;;
62832;SDS011;48891;49.220;6.920;2023-05-07T14:23:56;30.97;;;24.80;;
62832;SDS011;48891;49.220;6.920;2023-05-07T14:26:21;32.97;;;26.25;;
62832;SDS011;48891;49.220;6.920;2023-05-07T14:28:46;34.17;;;26.60;;
62832;SDS011;48891;49.220;6.920;2023-05-07T14:31:12;35.40;;;27.30;;
62832;SDS011;48891;49.220;6.920;2023-05-07T14:33:37;33.38;;;25.95;;
62832;SDS011;48891;49.220;6.920;2023-05-07T14:36:02;34.65;;;26.63;;
62832;SDS011;48891;49.220;6.920;2023-05-07T14:38:28;32.38;;;26.00;;
62832;SDS011;48891;49.220;6.920;2023-05-07T14:40:53;36.17;;;27.48;;